createdAt,value
2022-10-06T00:00:30.598Z,63.70
2022-10-06T00:02:58.900Z,62.60
2022-10-06T00:05:28.817Z,63.50
2022-10-06T00:07:57.793Z,63.70
2022-10-06T00:10:33.509Z,63.20
2022-10-06T00:13:02.364Z,63.10
2022-10-06T00:15:40.657Z,63.60
2022-10-06T00:18:08.993Z,63.00
2022-10-06T00:20:39.200Z,62.60
2022-10-06T00:23:09.338Z,62.20
2022-10-06T00:25:38.554Z,62.10
2022-10-06T00:28:07.002Z,62.00
2022-10-06T00:30:35.308Z,61.40
2022-10-06T00:33:04.947Z,61.60
2022-10-06T00:35:34.879Z,63.10
2022-10-06T00:38:05.143Z,62.00
2022-10-06T00:40:33.861Z,62.30
2022-10-06T00:43:04.289Z,62.10
2022-10-06T00:45:42.122Z,61.80
2022-10-06T00:48:17.510Z,61.00
2022-10-06T00:50:46.313Z,60.80
2022-10-06T00:53:17.008Z,61.10
2022-10-06T00:55:45.775Z,60.90
2022-10-06T00:58:14.773Z,60.90
2022-10-06T01:00:46.548Z,61.30
2022-10-06T01:03:19.189Z,61.40
2022-10-06T01:06:03.890Z,61.30
2022-10-06T01:08:35.081Z,61.20
2022-10-06T01:11:14.508Z,61.00
2022-10-06T01:13:47.049Z,61.30
2022-10-06T01:16:20.014Z,61.30
2022-10-06T01:18:54.460Z,61.30
2022-10-06T01:21:35.010Z,61.50
2022-10-06T01:24:09.978Z,61.50
2022-10-06T01:26:50.257Z,61.20
2022-10-06T01:29:33.436Z,61.60
2022-10-06T01:32:20.053Z,60.80
2022-10-06T01:34:52.849Z,60.70
2022-10-06T01:37:23.904Z,61.10
2022-10-06T01:39:56.260Z,61.80
2022-10-06T01:42:31.872Z,61.90
2022-10-06T01:45:00.880Z,61.70
2022-10-06T01:47:31.692Z,61.70
2022-10-06T01:50:01.263Z,61.70
2022-10-06T01:52:33.072Z,61.10
2022-10-06T01:55:19.615Z,61.10
2022-10-06T01:57:52.045Z,60.90
2022-10-06T02:00:24.034Z,61.00
2022-10-06T02:02:52.730Z,61.00
2022-10-06T02:05:24.389Z,61.20
2022-10-06T02:07:54.979Z,61.50
2022-10-06T02:10:25.407Z,62.20
2022-10-06T02:12:55.878Z,62.60
2022-10-06T02:15:28.622Z,63.00
2022-10-06T02:17:57.502Z,62.20
2022-10-06T02:20:30.965Z,61.60
2022-10-06T02:23:18.531Z,61.60
2022-10-06T02:26:59.389Z,61.80
2022-10-06T02:29:41.033Z,61.40
2022-10-06T02:39:55.133Z,61.80
2022-10-06T02:47:17.972Z,62.30
2022-10-06T02:50:46.187Z,62.00
2022-10-06T02:53:43.015Z,62.20
2022-10-06T02:56:16.200Z,62.60
2022-10-06T02:59:11.972Z,63.00
2022-10-06T03:01:53.108Z,63.10
2022-10-06T03:04:42.758Z,63.00
2022-10-06T03:07:40.677Z,63.00
2022-10-06T03:10:21.600Z,63.00
2022-10-06T03:13:02.645Z,62.80
2022-10-06T03:15:43.080Z,62.90
2022-10-06T03:18:23.418Z,63.10
2022-10-06T03:21:02.262Z,62.00
2022-10-06T03:23:36.479Z,62.30
2022-10-06T03:26:18.275Z,63.00
2022-10-06T03:28:53.403Z,62.90
2022-10-06T03:31:46.958Z,62.80
2022-10-06T03:34:29.952Z,62.90
2022-10-06T03:37:19.717Z,62.90
2022-10-06T03:39:54.907Z,63.00
2022-10-06T03:42:23.931Z,63.10
2022-10-06T03:44:57.862Z,63.20
2022-10-06T03:47:36.953Z,63.80
2022-10-06T03:50:08.848Z,64.40
2022-10-06T03:52:54.437Z,64.30
2022-10-06T03:55:38.902Z,64.60
2022-10-06T03:58:30.646Z,64.80
2022-10-06T04:01:14.584Z,65.20
2022-10-06T04:04:19.140Z,65.40
2022-10-06T04:07:16.964Z,64.70
2022-10-06T04:10:15.319Z,64.30
2022-10-06T04:13:06.595Z,64.50
2022-10-06T04:15:48.626Z,64.10
2022-10-06T04:18:27.096Z,64.10
2022-10-06T04:21:23.183Z,64.40
2022-10-06T04:23:59.439Z,64.50
2022-10-06T04:26:41.218Z,64.20
2022-10-06T04:29:10.398Z,64.00
2022-10-06T04:31:41.223Z,64.30
2022-10-06T04:34:14.957Z,64.70
2022-10-06T04:36:46.738Z,64.70
2022-10-06T04:39:17.636Z,65.70
2022-10-06T04:41:49.128Z,66.50
2022-10-06T04:44:24.978Z,66.70
2022-10-06T04:46:55.675Z,67.40
2022-10-06T04:49:24.640Z,67.60
2022-10-06T04:51:57.863Z,67.30
2022-10-06T04:54:31.368Z,67.40
2022-10-06T04:57:02.606Z,67.30
2022-10-06T04:59:50.046Z,66.90
2022-10-06T05:07:19.080Z,67.10
2022-10-06T05:15:21.560Z,67.10
2022-10-06T05:22:48.325Z,67.10
2022-10-06T05:26:00.275Z,67.40
2022-10-06T05:29:25.026Z,67.00
2022-10-06T05:33:08.481Z,67.40
2022-10-06T05:36:17.775Z,67.70
2022-10-06T05:39:28.309Z,67.20
2022-10-06T05:48:52.193Z,67.30
2022-10-06T05:51:47.386Z,67.20
2022-10-06T05:55:36.366Z,67.00
2022-10-06T05:59:04.528Z,67.20
2022-10-06T06:02:53.266Z,67.10
2022-10-06T06:09:52.831Z,66.20
2022-10-06T06:12:57.508Z,65.10
2022-10-06T06:20:36.016Z,62.10
2022-10-06T06:24:06.868Z,62.50
2022-10-06T06:27:38.634Z,62.20
2022-10-06T06:31:53.971Z,60.60
2022-10-06T06:35:56.730Z,61.60
2022-10-06T06:43:56.057Z,58.70
2022-10-06T06:48:17.648Z,58.80
2022-10-06T06:52:02.055Z,58.80
2022-10-06T07:16:23.344Z,61.70
2022-10-06T07:19:09.824Z,62.00
2022-10-06T07:22:03.277Z,61.30
2022-10-06T07:24:49.358Z,60.00
2022-10-06T07:28:19.869Z,60.20
2022-10-06T08:10:19.314Z,57.90
2022-10-06T09:40:42.475Z,42.60
2022-10-06T10:16:10.754Z,37.30
2022-10-06T10:18:50.343Z,35.00
2022-10-06T10:21:28.104Z,34.30
2022-10-06T10:24:08.855Z,32.70
2022-10-06T11:19:14.991Z,35.70
2022-10-06T11:22:31.241Z,35.70
2022-10-06T11:35:35.437Z,31.20
2022-10-06T12:34:41.531Z,28.60
2022-10-06T13:24:08.215Z,26.60
2022-10-06T14:18:05.188Z,26.60
2022-10-06T14:21:40.255Z,28.00
2022-10-06T14:23:52.900Z,27.20
2022-10-06T14:26:27.660Z,28.00
2022-10-06T14:28:56.748Z,26.80
2022-10-06T14:31:27.339Z,28.50
2022-10-06T14:34:17.583Z,28.50
2022-10-06T14:36:55.355Z,27.10
2022-10-06T14:39:26.308Z,27.20
2022-10-06T14:42:00.824Z,26.00
2022-10-06T14:45:20.938Z,29.10
2022-10-06T14:48:08.996Z,27.50
2022-10-06T14:50:38.242Z,26.90
2022-10-06T14:53:19.487Z,26.80
2022-10-06T14:55:53.815Z,26.90
2022-10-06T14:58:24.656Z,26.80
2022-10-06T15:00:58.112Z,27.40
2022-10-06T15:03:45.519Z,27.40
2022-10-06T15:06:36.594Z,28.20
2022-10-06T15:09:24.918Z,28.90
2022-10-06T15:12:06.978Z,30.00
2022-10-06T15:14:39.808Z,27.80
2022-10-06T15:17:12.521Z,29.00
2022-10-06T15:19:41.461Z,28.90
2022-10-06T15:22:10.629Z,31.60
2022-10-06T15:24:40.960Z,30.20
2022-10-06T15:27:29.804Z,30.00
2022-10-06T15:30:00.445Z,30.70
2022-10-06T15:32:35.766Z,30.50
2022-10-06T15:35:21.603Z,30.80
2022-10-06T15:38:09.634Z,30.00
2022-10-06T15:41:03.412Z,29.70
2022-10-06T15:44:07.876Z,28.50
2022-10-06T15:46:39.273Z,30.80
2022-10-06T15:49:20.159Z,30.00
2022-10-06T15:52:20.193Z,30.40
2022-10-06T15:54:52.428Z,30.40
2022-10-06T15:57:37.176Z,32.10
2022-10-06T16:00:35.483Z,31.30
2022-10-06T16:04:06.751Z,32.10
2022-10-06T16:07:04.680Z,32.00
2022-10-06T16:09:39.277Z,31.50
2022-10-06T16:12:18.490Z,33.80
2022-10-06T16:14:52.510Z,35.80
2022-10-06T16:17:25.812Z,37.10
2022-10-06T16:19:57.834Z,38.30
2022-10-06T16:22:26.878Z,39.90
2022-10-06T16:29:15.221Z,41.30
2022-10-06T16:31:52.904Z,43.40
2022-10-06T16:34:21.559Z,43.00
2022-10-06T16:36:54.831Z,44.00
2022-10-06T16:39:25.315Z,44.20
2022-10-06T16:42:00.517Z,45.10
2022-10-06T16:44:29.415Z,45.60
2022-10-06T16:47:09.961Z,46.20
2022-10-06T16:50:32.225Z,46.70
2022-10-06T16:52:48.846Z,46.90
2022-10-06T16:55:18.480Z,46.60
2022-10-06T16:57:49.593Z,47.30
2022-10-06T17:04:35.815Z,46.30
2022-10-06T17:07:20.459Z,46.30
2022-10-06T17:10:15.707Z,47.90
2022-10-06T17:12:44.432Z,48.50
2022-10-06T17:15:13.925Z,48.40
2022-10-06T17:17:55.581Z,49.00
2022-10-06T17:20:55.141Z,49.50
2022-10-06T17:23:35.447Z,49.70
2022-10-06T17:26:13.343Z,50.50
2022-10-06T17:28:46.791Z,50.80
2022-10-06T17:31:23.556Z,50.40
2022-10-06T17:34:31.955Z,50.80
2022-10-06T17:37:24.778Z,50.40
2022-10-06T17:40:15.225Z,48.60
2022-10-06T17:43:23.381Z,49.60
2022-10-06T17:45:54.497Z,49.80
2022-10-06T17:48:33.405Z,50.00
2022-10-06T17:51:07.852Z,51.40
2022-10-06T17:53:42.860Z,51.20
2022-10-06T17:56:14.683Z,50.80
2022-10-06T17:58:44.505Z,51.50
2022-10-06T18:01:17.663Z,52.70
2022-10-06T18:03:48.684Z,53.10
2022-10-06T18:15:44.087Z,51.00
2022-10-06T18:18:50.270Z,49.90
2022-10-06T18:21:19.931Z,49.60
2022-10-06T18:23:49.468Z,49.20
2022-10-06T18:29:38.318Z,48.60
2022-10-06T18:38:16.788Z,50.40
2022-10-06T18:41:05.835Z,50.90
2022-10-06T18:43:46.253Z,52.60
2022-10-06T18:53:50.301Z,52.60
2022-10-06T18:57:27.288Z,51.30
2022-10-06T19:00:35.123Z,49.50
2022-10-06T19:03:32.779Z,48.50
2022-10-06T19:07:05.857Z,48.50
2022-10-06T19:09:46.151Z,49.10
2022-10-06T19:12:16.470Z,49.70
2022-10-06T19:14:55.992Z,50.60
2022-10-06T19:17:26.611Z,50.70
2022-10-06T19:23:35.166Z,52.20
2022-10-06T19:26:45.985Z,53.30
2022-10-06T19:30:25.547Z,52.90
2022-10-06T19:33:22.661Z,54.00
2022-10-06T19:40:41.845Z,52.40
2022-10-06T20:06:07.618Z,50.80
2022-10-06T20:08:42.360Z,51.10
2022-10-06T20:11:13.401Z,50.40
2022-10-06T20:13:43.805Z,50.90
2022-10-06T20:18:10.306Z,50.30
2022-10-06T20:24:38.810Z,51.40
2022-10-06T20:27:34.819Z,51.90
2022-10-06T20:30:10.844Z,52.50
2022-10-06T20:33:03.728Z,54.40
2022-10-06T20:35:45.539Z,54.20
2022-10-06T20:38:51.813Z,52.90
2022-10-06T20:41:28.075Z,52.80
2022-10-06T20:44:06.052Z,53.20
2022-10-06T20:47:56.054Z,53.70
2022-10-06T20:51:12.793Z,53.30
2022-10-06T20:53:41.419Z,51.70
2022-10-06T20:56:14.712Z,51.70
2022-10-06T20:58:58.178Z,51.50
2022-10-06T21:01:37.275Z,51.50
2022-10-06T21:04:10.786Z,51.00
2022-10-06T21:06:50.122Z,51.30
2022-10-06T21:09:24.882Z,51.00
2022-10-06T21:11:53.811Z,51.50
2022-10-06T21:14:25.592Z,51.50
2022-10-06T21:16:54.771Z,51.10
2022-10-06T21:19:27.094Z,50.60
2022-10-06T21:22:03.594Z,50.30
2022-10-06T21:24:34.898Z,50.00
2022-10-06T21:27:08.274Z,49.80
2022-10-06T21:29:41.060Z,50.00
2022-10-06T21:32:10.920Z,49.80
2022-10-06T21:35:07.626Z,49.50
2022-10-06T21:37:38.469Z,49.50
2022-10-06T21:40:14.893Z,49.50
2022-10-06T21:42:49.532Z,49.20
2022-10-06T21:58:45.177Z,49.40
2022-10-06T22:01:45.787Z,49.20
2022-10-06T22:04:44.090Z,49.20
2022-10-06T22:07:50.593Z,49.00
2022-10-06T22:10:46.628Z,49.60
2022-10-06T22:13:28.057Z,49.00
2022-10-06T22:16:47.816Z,48.40
2022-10-06T22:19:52.652Z,48.30
2022-10-06T22:22:48.237Z,48.00
2022-10-06T22:25:24.869Z,48.10
2022-10-06T22:28:33.754Z,48.30
2022-10-06T22:31:35.647Z,48.20
2022-10-06T22:34:31.051Z,48.70
2022-10-06T22:37:46.740Z,49.90
2022-10-06T22:41:29.205Z,51.00
2022-10-06T22:44:03.853Z,50.60
2022-10-06T22:47:07.223Z,51.40
2022-10-06T22:57:54.562Z,51.10
2022-10-06T23:01:54.620Z,50.90
2022-10-06T23:06:02.338Z,50.60
2022-10-06T23:25:53.830Z,49.60
2022-10-06T23:39:30.609Z,49.30
2022-10-06T23:43:14.556Z,49.50
2022-10-06T23:46:53.382Z,49.60
2022-10-06T23:50:34.192Z,48.80
2022-10-06T23:53:49.064Z,48.80
